createdAt,value
2023-04-10T00:00:32.203Z,93.41
2023-04-10T00:01:32.201Z,92.64
2023-04-10T00:02:32.276Z,91.67
2023-04-10T00:03:32.205Z,90.28
2023-04-10T00:04:32.146Z,90.28
2023-04-10T00:05:32.107Z,90.49
2023-04-10T00:06:32.086Z,90.14
2023-04-10T00:07:32.118Z,89.73
2023-04-10T00:08:32.056Z,89.62
2023-04-10T00:09:32.048Z,89.32
2023-04-10T00:10:32.040Z,89.22
2023-04-10T00:11:32.028Z,89.42
2023-04-10T00:12:32.033Z,89.22
2023-04-10T00:13:32.022Z,89.32
2023-04-10T00:14:31.993Z,89.56
2023-04-10T00:15:31.982Z,89.67
2023-04-10T00:16:31.984Z,89.77
2023-04-10T00:17:32.007Z,89.87
2023-04-10T00:18:31.951Z,90.02
2023-04-10T00:19:31.982Z,90.22
2023-04-10T00:20:31.903Z,90.22
2023-04-10T00:21:31.951Z,90.33
2023-04-10T00:22:31.928Z,90.43
2023-04-10T00:23:31.882Z,90.53
2023-04-10T00:24:31.875Z,90.78
2023-04-10T00:25:31.854Z,90.68
2023-04-10T00:26:31.893Z,90.78
2023-04-10T00:27:31.840Z,90.99
2023-04-10T00:28:31.903Z,91.20
2023-04-10T00:29:31.801Z,91.30
2023-04-10T00:30:31.782Z,91.50
2023-04-10T00:31:31.787Z,91.71
2023-04-10T00:32:31.795Z,92.02
2023-04-10T00:33:31.785Z,92.38
2023-04-10T00:34:31.756Z,92.27
2023-04-10T00:35:31.743Z,92.17
2023-04-10T00:36:31.728Z,92.27
2023-04-10T00:37:31.687Z,92.38
2023-04-10T00:38:31.715Z,92.38
2023-04-10T00:39:31.675Z,92.38
2023-04-10T00:40:31.660Z,92.48
2023-04-10T00:41:31.665Z,92.83
2023-04-10T00:42:31.652Z,93.24
2023-04-10T00:43:31.640Z,93.45
2023-04-10T00:44:31.606Z,93.45
2023-04-10T00:45:31.592Z,93.87
2023-04-10T00:46:31.629Z,94.38
2023-04-10T00:47:31.611Z,94.38
2023-04-10T00:48:31.545Z,94.18
2023-04-10T00:49:31.535Z,93.87
2023-04-10T00:50:31.526Z,93.87
2023-04-10T00:51:31.505Z,94.18
2023-04-10T00:52:31.504Z,94.07
2023-04-10T00:53:31.483Z,94.07
2023-04-10T00:54:31.490Z,94.18
2023-04-10T00:55:31.494Z,94.07
2023-04-10T00:56:31.459Z,94.18
2023-04-10T00:57:31.439Z,94.48
2023-04-10T00:58:31.431Z,94.38
2023-04-10T00:59:31.428Z,94.48
2023-04-10T01:00:31.392Z,94.69
2023-04-10T01:01:31.376Z,94.69
2023-04-10T01:02:31.486Z,94.59
2023-04-10T01:03:31.595Z,94.63
2023-04-10T01:04:31.460Z,94.53
2023-04-10T01:05:31.375Z,94.32
2023-04-10T01:06:31.333Z,94.18
2023-04-10T01:07:31.318Z,93.76
2023-04-10T01:08:31.282Z,93.66
2023-04-10T01:09:31.255Z,93.76
2023-04-10T01:10:31.262Z,93.76
2023-04-10T01:11:31.253Z,93.76
2023-04-10T01:12:31.277Z,93.72
2023-04-10T01:13:31.219Z,93.62
2023-04-10T01:14:31.238Z,93.51
2023-04-10T01:15:31.243Z,93.72
2023-04-10T01:16:31.222Z,93.51
2023-04-10T01:17:31.209Z,93.51
2023-04-10T01:18:31.170Z,93.26
2023-04-10T01:19:31.156Z,93.05
2023-04-10T01:20:31.151Z,92.64
2023-04-10T01:21:31.151Z,92.19
2023-04-10T01:22:31.105Z,91.77
2023-04-10T01:23:31.124Z,90.91
2023-04-10T01:24:31.076Z,89.67
2023-04-10T01:25:31.099Z,88.64
2023-04-10T01:26:31.069Z,88.59
2023-04-10T01:27:31.037Z,87.93
2023-04-10T01:28:31.052Z,86.66
2023-04-10T01:29:31.148Z,86.15
2023-04-10T01:30:31.113Z,85.07
2023-04-10T01:31:31.039Z,84.35
2023-04-10T01:32:31.002Z,83.63
2023-04-10T01:33:30.997Z,83.53
2023-04-10T01:34:31.007Z,82.25
2023-04-10T01:35:30.955Z,82.21
2023-04-10T01:36:30.925Z,80.77
2023-04-10T01:37:30.967Z,80.12
2023-04-10T01:38:30.888Z,80.12
2023-04-10T01:39:30.887Z,79.40
2023-04-10T01:40:30.936Z,78.96
2023-04-10T01:41:30.861Z,78.85
2023-04-10T01:42:30.847Z,78.54
2023-04-10T01:43:30.825Z,78.03
2023-04-10T01:44:30.842Z,77.82
2023-04-10T01:45:30.904Z,77.62
2023-04-10T01:46:30.889Z,77.78
2023-04-10T01:47:30.809Z,77.27
2023-04-10T01:48:30.848Z,77.48
2023-04-10T01:49:30.789Z,78.20
2023-04-10T01:50:30.798Z,77.68
2023-04-10T01:51:30.743Z,78.30
2023-04-10T01:52:30.764Z,78.54
2023-04-10T01:53:30.691Z,78.23
2023-04-10T01:54:30.741Z,77.41
2023-04-10T01:55:30.681Z,77.58
2023-04-10T01:56:30.685Z,77.58
2023-04-10T01:57:30.757Z,77.58
2023-04-10T01:58:30.675Z,77.58
2023-04-10T01:59:30.617Z,77.27
2023-04-10T02:00:30.641Z,76.76
2023-04-10T02:01:30.769Z,76.76
2023-04-10T02:02:30.774Z,76.21
2023-04-10T02:03:30.822Z,76.31
2023-04-10T02:04:30.699Z,76.31
2023-04-10T02:05:30.563Z,76.21
2023-04-10T02:06:30.593Z,76.21
2023-04-10T02:07:30.549Z,76.42
2023-04-10T02:08:30.559Z,76.86
2023-04-10T02:09:38.046Z,76.04
2023-04-10T02:10:30.482Z,75.29
2023-04-10T02:11:30.470Z,75.38
2023-04-10T02:12:30.494Z,75.38
2023-04-10T02:13:30.464Z,75.18
2023-04-10T02:14:30.485Z,75.49
2023-04-10T02:15:30.464Z,75.52
2023-04-10T02:16:30.461Z,75.63
2023-04-10T02:17:30.425Z,76.35
2023-04-10T02:18:30.418Z,76.25
2023-04-10T02:19:30.417Z,76.69
2023-04-10T02:20:30.430Z,77.00
2023-04-10T02:21:30.340Z,76.90
2023-04-10T02:22:30.368Z,77.00
2023-04-10T02:23:30.309Z,77.10
2023-04-10T02:24:30.338Z,77.24
2023-04-10T02:25:30.316Z,77.34
2023-04-10T02:26:30.340Z,77.34
2023-04-10T02:27:30.326Z,77.96
2023-04-10T02:28:30.284Z,78.06
2023-04-10T02:29:30.314Z,78.20
2023-04-10T02:30:30.269Z,78.30
2023-04-10T02:31:30.311Z,78.30
2023-04-10T02:32:30.288Z,78.72
2023-04-10T02:33:30.245Z,78.72
2023-04-10T02:34:30.202Z,78.92
2023-04-10T02:35:30.191Z,78.75
2023-04-10T02:36:30.189Z,78.82
2023-04-10T02:37:30.155Z,78.72
2023-04-10T02:38:30.150Z,78.72
2023-04-10T02:39:30.152Z,78.51
2023-04-10T02:40:30.146Z,78.61
2023-04-10T02:41:30.125Z,78.51
2023-04-10T02:42:30.094Z,78.51
2023-04-10T02:43:30.091Z,78.41
2023-04-10T02:44:30.072Z,78.51
2023-04-10T02:45:30.075Z,78.41
2023-04-10T02:46:30.198Z,78.41
2023-04-10T02:47:30.060Z,78.30
2023-04-10T02:48:30.046Z,78.61
2023-04-10T02:49:30.022Z,78.72
2023-04-10T02:50:30.022Z,78.61
2023-04-10T02:51:29.995Z,78.41
2023-04-10T02:52:30.059Z,78.30
2023-04-10T02:53:29.976Z,77.79
2023-04-10T02:54:29.967Z,78.06
2023-04-10T02:55:29.946Z,77.86
2023-04-10T02:56:29.925Z,77.86
2023-04-10T02:57:29.901Z,78.06
2023-04-10T02:58:29.931Z,78.10
2023-04-10T02:59:29.876Z,78.10
2023-04-10T03:00:29.911Z,78.30
2023-04-10T03:01:29.952Z,78.20
2023-04-10T03:02:30.029Z,78.06
2023-04-10T03:03:30.010Z,77.75
2023-04-10T03:04:29.856Z,77.38
2023-04-10T03:05:29.793Z,77.75
2023-04-10T03:06:29.815Z,77.65
2023-04-10T03:07:29.811Z,77.69
2023-04-10T03:08:29.775Z,77.79
2023-04-10T03:09:29.777Z,78.20
2023-04-10T03:10:29.752Z,78.20
2023-04-10T03:11:29.760Z,78.51
2023-04-10T03:12:29.718Z,78.30
2023-04-10T03:13:29.703Z,78.20
2023-04-10T03:14:29.701Z,77.79
2023-04-10T03:15:29.723Z,77.89
2023-04-10T03:16:29.716Z,77.38
2023-04-10T03:17:39.553Z,76.93
2023-04-10T03:18:29.695Z,76.73
2023-04-10T03:19:29.706Z,76.52
2023-04-10T03:20:29.670Z,76.52
2023-04-10T03:21:29.664Z,76.52
2023-04-10T03:22:29.627Z,76.62
2023-04-10T03:23:29.642Z,76.83
2023-04-10T03:24:29.708Z,77.24
2023-04-10T03:25:29.561Z,77.96
2023-04-10T03:26:29.599Z,77.24
2023-04-10T03:27:29.523Z,76.73
2023-04-10T03:28:29.508Z,77.14
2023-04-10T03:29:29.519Z,76.83
2023-04-10T03:30:29.520Z,76.62
2023-04-10T03:31:29.736Z,76.42
2023-04-10T03:32:29.518Z,76.52
2023-04-10T03:33:29.558Z,76.52
2023-04-10T03:34:29.520Z,76.52
2023-04-10T03:35:29.423Z,76.52
2023-04-10T03:36:29.536Z,76.62
2023-04-10T03:37:29.438Z,76.62
2023-04-10T03:38:29.446Z,76.93
2023-04-10T03:39:29.400Z,76.76
2023-04-10T03:40:29.483Z,77.17
2023-04-10T03:41:29.376Z,76.66
2023-04-10T03:42:29.369Z,76.86
2023-04-10T03:43:29.378Z,76.76
2023-04-10T03:44:29.319Z,77.28
2023-04-10T03:45:29.334Z,76.97
2023-04-10T03:46:29.330Z,76.56
2023-04-10T03:47:29.301Z,76.66
2023-04-10T03:48:29.263Z,76.42
2023-04-10T03:49:29.322Z,76.31
2023-04-10T03:50:29.252Z,76.76
2023-04-10T03:51:29.254Z,76.45
2023-04-10T03:52:29.294Z,76.01
2023-04-10T03:53:29.267Z,75.59
2023-04-10T03:54:29.230Z,74.74
2023-04-10T03:55:29.216Z,75.15
2023-04-10T03:56:29.187Z,74.95
2023-04-10T03:57:29.141Z,74.74
2023-04-10T03:58:29.162Z,74.84
2023-04-10T03:59:38.191Z,75.04
2023-04-10T04:00:30.222Z,73.71
2023-04-10T04:01:29.186Z,74.50
2023-04-10T04:02:29.307Z,73.57
2023-04-10T04:03:29.253Z,72.85
2023-04-10T04:04:29.907Z,73.13
2023-04-10T04:05:29.051Z,72.92
2023-04-10T04:06:29.174Z,73.16
2023-04-10T04:07:29.456Z,73.27
2023-04-10T04:08:31.488Z,73.36
2023-04-10T04:09:29.058Z,73.30
2023-04-10T04:10:29.020Z,74.22
2023-04-10T04:11:29.059Z,74.12
2023-04-10T04:12:28.967Z,74.95
2023-04-10T04:13:29.082Z,75.04
2023-04-10T04:14:30.547Z,74.98
2023-04-10T04:15:28.946Z,74.77
2023-04-10T04:16:28.984Z,75.18
2023-04-10T04:17:28.944Z,75.49
2023-04-10T04:18:30.484Z,75.70
2023-04-10T04:19:29.979Z,75.84
2023-04-10T04:20:28.888Z,75.84
2023-04-10T04:21:28.874Z,76.35
2023-04-10T04:22:28.868Z,76.04
2023-04-10T04:23:29.054Z,76.35
2023-04-10T04:24:30.115Z,75.94
2023-04-10T04:25:29.628Z,75.94
2023-04-10T04:26:28.833Z,76.04
2023-04-10T04:27:28.798Z,75.94
2023-04-10T04:28:30.339Z,76.14
2023-04-10T04:29:28.814Z,76.79
2023-04-10T04:30:28.752Z,77.00
2023-04-10T04:31:28.749Z,76.90
2023-04-10T04:32:28.808Z,77.21
2023-04-10T04:33:28.706Z,77.31
2023-04-10T04:34:28.859Z,77.62
2023-04-10T04:35:28.686Z,77.62
2023-04-10T04:36:30.529Z,77.11
2023-04-10T04:37:28.685Z,77.21
2023-04-10T04:38:36.471Z,76.59
2023-04-10T04:39:28.737Z,76.07
2023-04-10T04:40:28.712Z,75.73
2023-04-10T04:41:28.694Z,75.42
2023-04-10T04:42:28.651Z,75.01
2023-04-10T04:43:28.608Z,75.12
2023-04-10T04:44:29.075Z,74.26
2023-04-10T04:45:28.613Z,74.46
2023-04-10T04:46:28.947Z,74.26
2023-04-10T04:47:29.138Z,74.15
2023-04-10T04:48:28.515Z,73.40
2023-04-10T04:49:28.516Z,73.19
2023-04-10T04:50:28.519Z,72.99
2023-04-10T04:51:28.464Z,72.99
2023-04-10T04:52:28.501Z,72.99
2023-04-10T04:53:28.491Z,72.85
2023-04-10T04:54:29.522Z,72.65
2023-04-10T04:55:28.470Z,73.19
2023-04-10T04:56:28.457Z,73.30
2023-04-10T04:57:28.397Z,73.30
2023-04-10T04:58:34.221Z,72.99
2023-04-10T04:59:28.547Z,72.99
2023-04-10T05:00:28.754Z,72.85
2023-04-10T05:01:28.419Z,72.44
2023-04-10T05:02:28.570Z,72.34
2023-04-10T05:03:28.662Z,73.16
2023-04-10T05:04:29.644Z,72.65
2023-04-10T05:05:28.308Z,72.34
2023-04-10T05:06:28.373Z,72.24
2023-04-10T05:07:36.788Z,71.38
2023-04-10T05:08:29.948Z,71.38
2023-04-10T05:09:28.250Z,71.38
2023-04-10T05:10:28.246Z,71.17
2023-04-10T05:11:28.208Z,71.28
2023-04-10T05:12:28.252Z,71.38
2023-04-10T05:13:28.217Z,71.28
2023-04-10T05:14:28.243Z,71.04
2023-04-10T05:15:28.185Z,71.08
2023-04-10T05:16:28.182Z,71.17
2023-04-10T05:17:28.233Z,71.76
2023-04-10T05:18:28.182Z,70.53
2023-04-10T05:19:28.117Z,71.04
2023-04-10T05:20:28.156Z,70.73
2023-04-10T05:21:28.107Z,70.60
2023-04-10T05:22:28.079Z,70.70
2023-04-10T05:23:28.130Z,70.90
2023-04-10T05:24:28.051Z,70.08
2023-04-10T05:25:28.043Z,70.60
2023-04-10T05:26:28.023Z,70.08
2023-04-10T05:27:28.043Z,69.78
2023-04-10T05:28:28.080Z,69.64
2023-04-10T05:29:28.182Z,70.36
2023-04-10T05:30:28.105Z,70.56
2023-04-10T05:31:28.037Z,70.26
2023-04-10T05:32:28.230Z,69.13
2023-04-10T05:33:28.078Z,69.23
2023-04-10T05:34:28.004Z,68.79
2023-04-10T05:35:28.120Z,68.99
2023-04-10T05:36:27.956Z,68.59
2023-04-10T05:37:28.071Z,69.61
2023-04-10T05:38:28.053Z,69.40
2023-04-10T05:39:28.124Z,68.59
2023-04-10T05:40:27.971Z,68.14
2023-04-10T05:41:28.017Z,69.47
2023-04-10T05:42:27.885Z,67.83
2023-04-10T05:43:27.833Z,67.83
2023-04-10T05:44:27.828Z,66.98
2023-04-10T05:45:27.795Z,67.49
2023-04-10T05:46:27.815Z,67.90
2023-04-10T05:47:28.179Z,68.01
2023-04-10T05:48:27.859Z,67.80
2023-04-10T05:49:27.776Z,67.60
2023-04-10T05:50:29.974Z,66.78
2023-04-10T05:51:27.722Z,65.83
2023-04-10T05:52:27.809Z,66.44
2023-04-10T05:53:27.696Z,66.51
2023-04-10T05:54:27.688Z,66.00
2023-04-10T05:55:27.815Z,66.10
2023-04-10T05:56:28.041Z,66.10
2023-04-10T05:57:27.955Z,65.69
2023-04-10T05:58:27.815Z,65.18
2023-04-10T05:59:27.883Z,65.36
2023-04-10T06:00:27.830Z,65.25
2023-04-10T06:01:28.022Z,65.05
2023-04-10T06:02:28.022Z,64.54
2023-04-10T06:03:27.820Z,64.20
2023-04-10T06:04:27.728Z,63.79
2023-04-10T06:05:27.594Z,63.45
2023-04-10T06:06:27.544Z,63.25
2023-04-10T06:07:27.508Z,64.07
2023-04-10T06:08:27.495Z,63.86
2023-04-10T06:09:27.502Z,62.84
2023-04-10T06:10:27.499Z,62.95
2023-04-10T06:11:27.458Z,62.54
2023-04-10T06:12:27.482Z,62.74
2023-04-10T06:13:27.469Z,62.40
2023-04-10T06:14:27.430Z,61.90
2023-04-10T06:15:27.388Z,61.69
2023-04-10T06:16:27.391Z,61.58
2023-04-10T06:17:27.403Z,61.90
2023-04-10T06:18:27.345Z,61.82
2023-04-10T06:19:27.349Z,62.33
2023-04-10T06:20:27.344Z,62.43
2023-04-10T06:21:27.478Z,63.15
2023-04-10T06:22:27.341Z,62.54
2023-04-10T06:23:27.335Z,62.33
2023-04-10T06:24:27.290Z,62.95
2023-04-10T06:25:27.398Z,62.23
2023-04-10T06:26:27.250Z,62.95
2023-04-10T06:27:27.271Z,62.33
2023-04-10T06:28:27.210Z,62.84
2023-04-10T06:29:27.183Z,61.92
2023-04-10T06:30:27.250Z,62.61
2023-04-10T06:31:27.509Z,61.38
2023-04-10T06:32:32.915Z,61.58
2023-04-10T06:33:27.427Z,61.79
2023-04-10T06:34:28.348Z,61.49
2023-04-10T06:35:27.152Z,61.49
2023-04-10T06:36:27.118Z,61.08
2023-04-10T06:37:27.112Z,60.57
2023-04-10T06:38:27.103Z,60.44
2023-04-10T06:39:27.069Z,61.76
2023-04-10T06:40:27.236Z,60.85
2023-04-10T06:41:27.053Z,60.61
2023-04-10T06:42:27.212Z,61.53
2023-04-10T06:43:27.167Z,60.69
2023-04-10T06:44:26.994Z,58.85
2023-04-10T06:45:27.168Z,59.03
2023-04-10T06:46:27.656Z,58.51
2023-04-10T06:47:27.813Z,58.95
2023-04-10T06:48:27.839Z,58.62
2023-04-10T06:49:26.933Z,59.30
2023-04-10T06:50:26.941Z,58.56
2023-04-10T06:51:27.096Z,57.54
2023-04-10T06:52:26.905Z,57.24
2023-04-10T06:53:28.629Z,57.85
2023-04-10T06:54:26.950Z,57.44
2023-04-10T06:55:26.861Z,56.63
2023-04-10T06:56:26.864Z,58.46
2023-04-10T06:57:27.648Z,57.04
2023-04-10T06:58:27.342Z,57.14
2023-04-10T06:59:28.833Z,57.24
2023-04-10T07:00:27.206Z,58.46
2023-04-10T07:01:26.869Z,58.15
2023-04-10T07:02:27.209Z,57.65
2023-04-10T07:03:26.805Z,57.78
2023-04-10T07:04:26.710Z,57.26
2023-04-10T07:05:27.146Z,58.01
2023-04-10T07:06:26.978Z,57.78
2023-04-10T07:07:26.756Z,59.41
2023-04-10T07:08:26.891Z,58.18
2023-04-10T07:09:26.713Z,58.11
2023-04-10T07:10:26.913Z,57.78
2023-04-10T07:11:26.907Z,58.28
2023-04-10T07:12:26.772Z,57.47
2023-04-10T07:13:26.747Z,57.57
2023-04-10T07:14:26.798Z,56.93
2023-04-10T07:15:27.143Z,57.34
2023-04-10T07:16:26.615Z,56.42
2023-04-10T07:17:26.723Z,57.54
2023-04-10T07:18:26.790Z,56.29
2023-04-10T07:19:26.552Z,57.11
2023-04-10T07:20:26.683Z,55.66
2023-04-10T07:21:27.190Z,55.79
2023-04-10T07:22:26.574Z,55.48
2023-04-10T07:23:26.564Z,55.55
2023-04-10T07:24:26.623Z,55.46
2023-04-10T07:25:26.499Z,55.63
2023-04-10T07:26:26.445Z,55.00
2023-04-10T07:27:26.592Z,54.49
2023-04-10T07:28:26.558Z,55.63
2023-04-10T07:29:26.426Z,55.43
2023-04-10T07:30:26.513Z,55.22
2023-04-10T07:31:26.482Z,55.83
2023-04-10T07:32:26.813Z,55.33
2023-04-10T07:33:27.070Z,55.53
2023-04-10T07:34:26.292Z,56.04
2023-04-10T07:35:26.479Z,55.66
2023-04-10T07:36:26.295Z,56.37
2023-04-10T07:37:26.482Z,56.09
2023-04-10T07:38:26.345Z,56.90
2023-04-10T07:39:26.489Z,55.99
2023-04-10T07:40:26.424Z,56.50
2023-04-10T07:41:26.406Z,56.81
2023-04-10T07:42:26.186Z,56.70
2023-04-10T07:43:26.219Z,57.49
2023-04-10T07:44:26.237Z,55.86
2023-04-10T07:45:26.143Z,56.20
2023-04-10T07:46:26.155Z,56.60
2023-04-10T07:47:35.078Z,56.60
2023-04-10T07:48:29.130Z,57.01
2023-04-10T07:49:26.275Z,56.20
2023-04-10T07:50:34.949Z,56.27
2023-04-10T07:51:41.565Z,55.96
2023-04-10T07:52:26.604Z,55.73
2023-04-10T07:53:33.660Z,55.02
2023-04-10T07:54:26.250Z,55.53
2023-04-10T07:55:26.059Z,55.12
2023-04-10T07:56:26.124Z,55.83
2023-04-10T07:57:26.021Z,55.12
2023-04-10T07:58:26.030Z,56.85
2023-04-10T07:59:26.073Z,55.94
2023-04-10T08:00:25.957Z,55.00
2023-04-10T08:01:25.984Z,54.87
2023-04-10T08:02:26.308Z,55.55
2023-04-10T08:03:26.091Z,54.41
2023-04-10T08:04:26.126Z,53.50
2023-04-10T08:05:25.942Z,53.72
2023-04-10T08:06:25.932Z,55.55
2023-04-10T08:07:25.888Z,54.03
2023-04-10T08:08:25.806Z,55.66
2023-04-10T08:09:25.833Z,54.00
2023-04-10T08:10:25.863Z,54.49
2023-04-10T08:11:25.950Z,52.86
2023-04-10T08:12:25.789Z,53.06
2023-04-10T08:13:25.757Z,52.97
2023-04-10T08:14:25.742Z,52.84
2023-04-10T08:15:25.751Z,52.23
2023-04-10T08:16:25.736Z,52.00
2023-04-10T08:17:25.919Z,54.53
2023-04-10T08:18:25.685Z,53.30
2023-04-10T08:19:36.988Z,51.70
2023-04-10T08:20:25.679Z,50.86
2023-04-10T08:21:26.056Z,52.59
2023-04-10T08:22:25.816Z,52.28
2023-04-10T08:23:26.245Z,51.07
2023-04-10T08:24:25.912Z,51.07
2023-04-10T08:25:26.221Z,50.76
2023-04-10T08:26:29.874Z,50.66
2023-04-10T08:27:25.674Z,51.39
2023-04-10T08:28:25.739Z,51.39
2023-04-10T08:29:25.835Z,51.09
2023-04-10T08:30:25.842Z,50.99
2023-04-10T08:31:25.936Z,51.29
2023-04-10T08:32:25.738Z,51.90
2023-04-10T08:33:25.732Z,51.90
2023-04-10T08:34:25.595Z,50.66
2023-04-10T08:35:25.984Z,50.86
2023-04-10T08:36:25.661Z,50.86
2023-04-10T08:37:25.643Z,51.98
2023-04-10T08:38:26.805Z,51.17
2023-04-10T08:39:25.615Z,51.67
2023-04-10T08:40:30.880Z,53.27
2023-04-10T08:41:26.478Z,50.66
2023-04-10T08:42:25.446Z,50.89
2023-04-10T08:43:26.008Z,51.21
2023-04-10T08:44:33.910Z,51.09
2023-04-10T08:45:25.382Z,51.60
2023-04-10T08:46:25.433Z,50.46
2023-04-10T08:47:25.404Z,51.37
2023-04-10T08:48:25.281Z,51.14
2023-04-10T08:49:25.610Z,49.75
2023-04-10T08:50:25.356Z,51.37
2023-04-10T08:51:26.683Z,52.31
2023-04-10T08:52:25.281Z,52.39
2023-04-10T08:53:25.231Z,51.09
2023-04-10T08:54:25.177Z,51.19
2023-04-10T08:55:25.184Z,50.99
2023-04-10T08:56:25.208Z,51.09
2023-04-10T08:57:25.158Z,51.39
2023-04-10T08:58:25.153Z,51.52
2023-04-10T08:59:25.179Z,52.81
2023-04-10T09:00:25.155Z,50.79
2023-04-10T09:01:25.163Z,50.96
2023-04-10T09:02:25.333Z,51.14
2023-04-10T09:03:26.055Z,51.32
2023-04-10T09:04:26.365Z,50.99
2023-04-10T09:05:25.486Z,49.78
2023-04-10T09:06:25.091Z,50.69
2023-04-10T09:07:25.011Z,49.19
2023-04-10T09:08:25.020Z,50.92
2023-04-10T09:09:24.995Z,50.54
2023-04-10T09:10:24.981Z,50.63
2023-04-10T09:11:25.331Z,49.93
2023-04-10T09:12:24.957Z,49.95
2023-04-10T09:13:24.939Z,51.07
2023-04-10T09:14:24.939Z,50.26
2023-04-10T09:15:24.893Z,51.17
2023-04-10T09:16:24.968Z,50.66
2023-04-10T09:17:25.306Z,50.74
2023-04-10T09:18:24.989Z,50.51
2023-04-10T09:19:24.994Z,50.67
2023-04-10T09:20:24.918Z,48.52
2023-04-10T09:21:24.876Z,48.85
2023-04-10T09:22:24.855Z,48.32
2023-04-10T09:23:24.995Z,48.52
2023-04-10T09:24:28.761Z,48.72
2023-04-10T09:25:25.292Z,48.42
2023-04-10T09:26:24.871Z,47.94
2023-04-10T09:27:25.743Z,49.38
2023-04-10T09:28:25.870Z,49.68
2023-04-10T09:29:25.867Z,49.98
2023-04-10T09:30:25.265Z,51.07
2023-04-10T09:31:24.815Z,48.85
2023-04-10T09:32:25.452Z,49.25
2023-04-10T09:33:24.799Z,49.07
2023-04-10T09:34:24.872Z,50.18
2023-04-10T09:35:24.766Z,49.45
2023-04-10T09:36:24.857Z,49.17
2023-04-10T09:37:24.653Z,49.58
2023-04-10T09:38:24.686Z,50.37
2023-04-10T09:39:25.020Z,48.72
2023-04-10T09:40:24.832Z,49.01
2023-04-10T09:41:24.956Z,48.80
2023-04-10T09:42:24.646Z,48.42
2023-04-10T09:43:24.773Z,48.95
2023-04-10T09:44:27.731Z,48.85
2023-04-10T09:45:25.053Z,49.58
2023-04-10T09:46:25.017Z,49.98
2023-04-10T09:47:26.652Z,49.48
2023-04-10T09:48:25.309Z,49.58
2023-04-10T09:49:26.207Z,49.27
2023-04-10T09:50:24.459Z,49.35
2023-04-10T09:51:25.885Z,49.25
2023-04-10T09:52:24.370Z,49.73
2023-04-10T09:53:24.378Z,49.93
2023-04-10T09:54:24.354Z,50.01
2023-04-10T09:55:24.370Z,49.18
2023-04-10T09:56:24.347Z,48.60
2023-04-10T09:57:24.338Z,48.80
2023-04-10T09:58:24.464Z,50.82
2023-04-10T09:59:24.298Z,50.09
2023-04-10T10:00:24.311Z,50.29
2023-04-10T10:01:24.431Z,48.39
2023-04-10T10:02:24.567Z,49.43
2023-04-10T10:03:24.376Z,48.34
2023-04-10T10:04:24.270Z,49.25
2023-04-10T10:05:24.270Z,48.82
2023-04-10T10:06:24.254Z,48.93
2023-04-10T10:07:24.238Z,50.21
2023-04-10T10:08:24.287Z,48.90
2023-04-10T10:09:24.158Z,50.01
2023-04-10T10:10:24.245Z,50.92
2023-04-10T10:11:24.200Z,51.30
2023-04-10T10:12:24.126Z,51.40
2023-04-10T10:13:24.119Z,50.42
2023-04-10T10:14:24.101Z,49.61
2023-04-10T10:15:24.117Z,48.93
2023-04-10T10:16:24.066Z,50.64
2023-04-10T10:17:24.084Z,48.82
2023-04-10T10:18:24.091Z,48.42
2023-04-10T10:19:24.065Z,48.42
2023-04-10T10:20:24.012Z,48.32
2023-04-10T10:21:24.014Z,48.22
2023-04-10T10:22:23.972Z,48.11
2023-04-10T10:23:23.989Z,47.41
2023-04-10T10:24:23.944Z,48.42
2023-04-10T10:25:26.233Z,48.60
2023-04-10T10:26:24.552Z,47.79
2023-04-10T10:27:24.250Z,48.37
2023-04-10T10:28:24.175Z,47.47
2023-04-10T10:29:24.898Z,49.26
2023-04-10T10:30:29.478Z,46.64
2023-04-10T10:31:27.337Z,47.34
2023-04-10T10:32:27.035Z,48.93
2023-04-10T10:33:24.059Z,48.50
2023-04-10T10:34:23.856Z,48.41
2023-04-10T10:35:25.563Z,46.21
2023-04-10T10:36:23.883Z,46.41
2023-04-10T10:37:23.860Z,45.20
2023-04-10T10:38:23.945Z,46.31
2023-04-10T10:39:23.824Z,45.90
2023-04-10T10:40:23.751Z,47.34
2023-04-10T10:41:23.777Z,46.43
2023-04-10T10:42:23.997Z,46.13
2023-04-10T10:43:23.741Z,47.32
2023-04-10T10:44:23.856Z,45.83
2023-04-10T10:45:23.859Z,46.31
2023-04-10T10:46:23.797Z,45.61
2023-04-10T10:47:23.752Z,46.21
2023-04-10T10:48:23.659Z,46.81
2023-04-10T10:49:23.713Z,46.21
2023-04-10T10:50:24.862Z,45.50
2023-04-10T10:51:23.606Z,46.89
2023-04-10T10:52:23.694Z,46.69
2023-04-10T10:53:23.598Z,45.68
2023-04-10T10:54:24.485Z,46.29
2023-04-10T10:55:27.943Z,47.70
2023-04-10T10:56:23.545Z,46.41
2023-04-10T10:57:23.527Z,46.51
2023-04-10T10:58:23.539Z,45.61
2023-04-10T10:59:23.494Z,46.64
2023-04-10T11:00:23.542Z,46.03
2023-04-10T11:01:23.459Z,44.92
2023-04-10T11:02:23.633Z,45.75
2023-04-10T11:03:31.132Z,45.75
2023-04-10T11:04:23.404Z,45.54
2023-04-10T11:05:23.387Z,46.25
2023-04-10T11:06:23.412Z,45.85
2023-04-10T11:07:23.359Z,45.73
2023-04-10T11:08:23.425Z,48.63
2023-04-10T11:09:23.365Z,45.20
2023-04-10T11:10:24.776Z,46.51
2023-04-10T11:11:23.362Z,45.81
2023-04-10T11:12:23.458Z,44.62
2023-04-10T11:13:23.435Z,45.04
2023-04-10T11:14:24.472Z,45.54
2023-04-10T11:15:23.586Z,47.36
2023-04-10T11:16:23.825Z,46.76
2023-04-10T11:17:23.292Z,46.94
2023-04-10T11:18:23.389Z,46.51
2023-04-10T11:19:24.024Z,47.14
2023-04-10T11:20:23.685Z,46.64
2023-04-10T11:21:23.429Z,46.05
2023-04-10T11:22:23.183Z,48.45
2023-04-10T11:23:23.181Z,46.43
2023-04-10T11:24:23.350Z,46.21
2023-04-10T11:25:38.340Z,46.21
2023-04-10T11:26:23.159Z,47.62
2023-04-10T11:27:23.214Z,47.30
2023-04-10T11:28:24.218Z,45.18
2023-04-10T11:29:24.289Z,44.49
2023-04-10T11:30:23.120Z,45.58
2023-04-10T11:31:23.377Z,45.89
2023-04-10T11:32:23.784Z,45.48
2023-04-10T11:33:23.059Z,45.38
2023-04-10T11:34:23.328Z,44.47
2023-04-10T11:35:23.199Z,44.47
2023-04-10T11:36:24.452Z,44.87
2023-04-10T11:37:24.044Z,44.37
2023-04-10T11:38:22.963Z,44.98
2023-04-10T11:39:22.925Z,44.57
2023-04-10T11:40:23.082Z,44.15
2023-04-10T11:41:22.951Z,43.85
2023-04-10T11:42:23.033Z,44.33
2023-04-10T11:43:25.603Z,43.93
2023-04-10T11:44:22.910Z,43.93
2023-04-10T11:45:22.910Z,43.30
2023-04-10T11:46:22.898Z,42.18
2023-04-10T11:47:22.895Z,41.91
2023-04-10T11:48:22.866Z,43.02
2023-04-10T11:49:22.795Z,42.54
2023-04-10T11:50:22.800Z,44.25
2023-04-10T11:51:22.805Z,45.14
2023-04-10T11:52:22.860Z,42.72
2023-04-10T11:53:22.798Z,43.32
2023-04-10T11:54:22.814Z,43.60
2023-04-10T11:55:22.789Z,42.52
2023-04-10T11:56:22.747Z,42.82
2023-04-10T11:57:22.807Z,44.15
2023-04-10T11:58:22.726Z,43.24
2023-04-10T11:59:22.776Z,43.32
2023-04-10T12:00:22.681Z,44.73
2023-04-10T12:01:22.698Z,43.34
2023-04-10T12:02:22.852Z,43.32
2023-04-10T12:03:22.858Z,44.02
2023-04-10T12:04:22.982Z,42.70
2023-04-10T12:05:22.621Z,43.91
2023-04-10T12:06:22.576Z,42.80
2023-04-10T12:07:22.706Z,42.32
2023-04-10T12:08:22.728Z,42.54
2023-04-10T12:09:22.575Z,42.74
2023-04-10T12:10:22.727Z,43.14
2023-04-10T12:11:22.547Z,42.92
2023-04-10T12:12:22.818Z,42.92
2023-04-10T12:13:22.535Z,43.44
2023-04-10T12:14:22.527Z,42.92
2023-04-10T12:15:22.500Z,44.51
2023-04-10T12:16:22.817Z,43.00
2023-04-10T12:17:22.576Z,43.20
2023-04-10T12:18:22.445Z,42.88
2023-04-10T12:19:22.554Z,43.48
2023-04-10T12:20:22.543Z,42.07
2023-04-10T12:21:22.525Z,41.95
2023-04-10T12:22:22.578Z,41.55
2023-04-10T12:23:22.328Z,42.07
2023-04-10T12:24:22.601Z,42.19
2023-04-10T12:25:22.492Z,41.39
2023-04-10T12:26:22.404Z,42.32
2023-04-10T12:27:22.394Z,42.70
2023-04-10T12:28:22.473Z,41.79
2023-04-10T12:29:22.296Z,41.11
2023-04-10T12:30:22.264Z,41.51
2023-04-10T12:31:22.559Z,42.21
2023-04-10T12:32:22.377Z,43.02
2023-04-10T12:33:22.822Z,43.00
2023-04-10T12:34:22.217Z,40.89
2023-04-10T12:35:22.197Z,41.89
2023-04-10T12:36:22.340Z,42.07
2023-04-10T12:37:22.252Z,40.73
2023-04-10T12:38:22.170Z,40.92
2023-04-10T12:39:22.334Z,41.41
2023-04-10T12:40:22.305Z,40.99
2023-04-10T12:41:22.156Z,40.26
2023-04-10T12:42:22.324Z,40.85
2023-04-10T12:43:22.128Z,39.45
2023-04-10T12:44:22.179Z,42.07
2023-04-10T12:45:22.506Z,40.30
2023-04-10T12:46:22.075Z,40.97
2023-04-10T12:47:22.067Z,42.10
2023-04-10T12:48:22.143Z,42.68
2023-04-10T12:49:22.059Z,42.10
2023-04-10T12:50:22.060Z,42.88
2023-04-10T12:51:22.136Z,41.69
2023-04-10T12:52:22.047Z,41.69